Estación Meteorológica Peña el Pijo (Robertgarden) [ 11/17/17 23:45:15 CET ]

Fecha Hora Presion(HPa) Temp (°C) Humedad % Rocio (°C) Viento ( m/s) Direccion Lluvia 1Hora(mm) Lluvia 24H(mm) LLuvia Total(mm)
2017-Sep-13 01:01:43 1015.500 14.5 73 9.7         1457.65
2017-Sep-13 02:01:38 1015.600 13.7 76 9.5         1457.65
2017-Sep-13 03:02:13 1015.500 13.3 78 9.5         1457.65
2017-Sep-13 04:01:44 1015.100 12.4 78 8.7         1457.65
2017-Sep-13 05:02:28 1014.700 11.8 79 8.3         1457.65
2017-Sep-13 06:01:40 1015.000 10.8 81 7.7         1457.65
2017-Sep-13 07:01:33 1015.300 10.1 82 7.1         1457.65
2017-Sep-13 08:01:39 1015.600 9.8 83 7.0         1457.65
2017-Sep-13 09:01:55 1016.000 11.9 87 9.8         1457.65
2017-Sep-13 10:01:43 1016.100 18.9 71 13.5         1457.65
2017-Sep-13 11:01:39 1016.300 24.6 51 14.1         1457.65
2017-Sep-13 12:01:52 1016.200 28.8 39 13.6         1457.65
2017-Sep-13 13:01:34 1016.000 30.9 35 13.6         1457.65
2017-Sep-13 14:01:49 1015.700 30.5 33 12.3         1457.65
2017-Sep-13 15:01:48 1015.200 31.3 32 12.6 2.1 SE     1457.65
2017-Sep-13 16:01:24 1014.800 30.9 32 11.8         1457.65
2017-Sep-13 17:01:46 1014.200 32.1 28 11.2         1457.65
2017-Sep-13 18:01:29 1013.800 29.9 29 10.1         1457.65
2017-Sep-13 19:01:19 1013.700 28.6 30 9.4 1.2 SSE     1457.65
2017-Sep-13 20:01:58 1014.000 24.4 35 7.9         1457.65
2017-Sep-13 21:01:34 1014.600 21.2 41 7.4         1457.65
2017-Sep-13 22:01:45 1015.200 17.1 51 6.9         1457.65
2017-Sep-13 23:01:49 1015.300 14.9 57 6.4         1457.65

Temperatura Máxima:32°    Temperatura Mínima:
Presión Máxima:1016.300 Hpa    Presión Mínima:1013.700 Hpa


Volver